Grafton, WI

9:13 PM CDT on September 21, 2014 (GMT -0500)
Gen Mitchell International | Change Station
CLOSE
Current Station
Airport
Location: Milwaukee,
Elevation: 692 ft
Nearby Weather Stations

Elev 692 ft 42.96 °N, 87.90 °W | Updated 21 minutes ago

Clear
Clear
53 °F
Feels Like 53 °F
N
8
Wind Variable Wind from NNW

Today
High -- | Low -- °F
--% Chance of Precip.
Yesterday
High -- | Low -- °F
Precip. -- in
6:37 AM 6:50 PM
Waning Crescent, 4% visible
Pressure 30.13 in
Visibility 10.0 miles
Clouds Few 25000 ft
Dew Point 41 °F
Humidity 64%
Rainfall 0.03 in
Snow Depth Not available.
UV 0 out of 12
Pollen 3.80 out of 12
Air Quality Not available.
Flu Activity Not available.
METAR KMKE 220152Z 34007KT 10SM FEW250 12/05 A3012 RMK AO2 SLP202 T01170050

More Conditions Fewer Conditions

Pressure 30.13 in
Visibility 10.0 miles
Clouds Few 25000 ft
Dew Point 41 °F
Humidity 64%
Rainfall 0.03 in
Snow Depth Not available.
UV 0 out of 12
Pollen 3.80 out of 12
Air Quality Not available.
Flu Activity Not available.
METAR KMKE 220152Z 34007KT 10SM FEW250 12/05 A3012 RMK AO2 SLP202 T01170050

More Conditions Fewer Conditions

10-Day Weather Forecast

Almanac

Astronomy

Sep. 21, 2014 Rise Set
Actual Time 6:37 AM CDT 6:50 PM CDT
Civil Twilight 6:09 AM CDT 7:19 PM CDT
Nautical Twilight 5:35 AM CDT 7:52 PM CDT
Astronomical Twilight 5:01 AM CDT 8:26 PM CDT
Moon 4:07 AM CDT (9/21) 5:29 PM CDT (9/21)
Length of Visible Light 13h 09m
Length of Day
12h 12m
Tomorrow will be 2m 56s shorter.
Waning Crescent, 4% of the Moon is Illuminated
Today
Waning Crescent
Sep 24
New
Oct 1
First Quarter
Oct 8
Full
Oct 15
Last Quarter

Today's Extremes

State Highs State Lows

Community

WunderPhotos

Upload Photos

1,755,347 photos uploaded!

WunderBlogs® & News

Nearby

Snow Depth

Station Depth Elevation
No new snow has been reported.

Earthquake Activity

City Distance Mag. Time & Date
No recent earthquake activity has been reported nearby.
Minimum magnitude displayed is 2.5.

Coastal Water Temperatures

Place Temperature
No Stations Reporting

Nearby Weather Stations